sensor_id;sensor_type;location;lat;lon;timestamp;P1;durP1;ratioP1;P2;durP2;ratioP2
68250;SDS011;55066;51.560;4.642;2023-02-11T00:00:56;16.13;;;4.40;;
68250;SDS011;55066;51.560;4.642;2023-02-11T00:03:22;18.60;;;4.25;;
68250;SDS011;55066;51.560;4.642;2023-02-11T00:05:57;15.95;;;4.07;;
68250;SDS011;55066;51.560;4.642;2023-02-11T00:08:27;15.68;;;3.65;;
68250;SDS011;55066;51.560;4.642;2023-02-11T00:10:53;18.10;;;4.23;;
68250;SDS011;55066;51.560;4.642;2023-02-11T00:13:20;20.52;;;4.50;;
68250;SDS011;55066;51.560;4.642;2023-02-11T00:15:46;20.67;;;4.80;;
68250;SDS011;55066;51.560;4.642;2023-02-11T00:18:13;15.07;;;4.13;;
68250;SDS011;55066;51.560;4.642;2023-02-11T00:20:40;14.77;;;3.85;;
68250;SDS011;55066;51.560;4.642;2023-02-11T00:23:06;13.68;;;4.18;;
68250;SDS011;55066;51.560;4.642;2023-02-11T00:25:33;12.77;;;3.70;;
68250;SDS011;55066;51.560;4.642;2023-02-11T00:28:01;17.02;;;4.10;;
68250;SDS011;55066;51.560;4.642;2023-02-11T00:30:28;17.25;;;4.20;;
68250;SDS011;55066;51.560;4.642;2023-02-11T00:32:54;11.33;;;3.57;;
68250;SDS011;55066;51.560;4.642;2023-02-11T00:35:19;16.90;;;4.05;;
68250;SDS011;55066;51.560;4.642;2023-02-11T00:37:47;18.00;;;3.77;;
68250;SDS011;55066;51.560;4.642;2023-02-11T00:40:12;12.38;;;3.92;;
68250;SDS011;55066;51.560;4.642;2023-02-11T00:42:40;18.33;;;4.47;;
68250;SDS011;55066;51.560;4.642;2023-02-11T00:45:06;13.88;;;4.28;;
68250;SDS011;55066;51.560;4.642;2023-02-11T00:47:34;22.83;;;4.53;;
68250;SDS011;55066;51.560;4.642;2023-02-11T00:50:00;16.00;;;4.37;;
68250;SDS011;55066;51.560;4.642;2023-02-11T00:52:29;16.67;;;4.20;;
68250;SDS011;55066;51.560;4.642;2023-02-11T00:54:55;17.58;;;4.35;;
68250;SDS011;55066;51.560;4.642;2023-02-11T00:57:21;21.37;;;4.57;;
68250;SDS011;55066;51.560;4.642;2023-02-11T00:59:48;14.73;;;4.60;;
68250;SDS011;55066;51.560;4.642;2023-02-11T01:02:14;16.80;;;4.30;;
68250;SDS011;55066;51.560;4.642;2023-02-11T01:04:41;16.38;;;4.07;;
68250;SDS011;55066;51.560;4.642;2023-02-11T01:07:07;14.97;;;4.27;;
68250;SDS011;55066;51.560;4.642;2023-02-11T01:09:32;18.50;;;4.07;;
68250;SDS011;55066;51.560;4.642;2023-02-11T01:11:58;16.47;;;4.30;;
68250;SDS011;55066;51.560;4.642;2023-02-11T01:14:24;14.38;;;3.65;;
68250;SDS011;55066;51.560;4.642;2023-02-11T01:16:50;17.77;;;4.30;;
68250;SDS011;55066;51.560;4.642;2023-02-11T01:19:16;15.05;;;4.63;;
68250;SDS011;55066;51.560;4.642;2023-02-11T01:21:44;19.20;;;4.32;;
68250;SDS011;55066;51.560;4.642;2023-02-11T01:24:11;17.63;;;3.80;;
68250;SDS011;55066;51.560;4.642;2023-02-11T01:26:37;17.15;;;4.32;;
68250;SDS011;55066;51.560;4.642;2023-02-11T01:29:04;13.68;;;4.75;;
68250;SDS011;55066;51.560;4.642;2023-02-11T01:31:30;15.73;;;4.07;;
68250;SDS011;55066;51.560;4.642;2023-02-11T01:33:58;15.73;;;4.97;;
68250;SDS011;55066;51.560;4.642;2023-02-11T01:36:25;12.90;;;3.55;;
68250;SDS011;55066;51.560;4.642;2023-02-11T01:38:51;13.27;;;4.30;;
68250;SDS011;55066;51.560;4.642;2023-02-11T01:41:18;13.85;;;4.68;;
68250;SDS011;55066;51.560;4.642;2023-02-11T01:43:46;20.53;;;5.50;;
68250;SDS011;55066;51.560;4.642;2023-02-11T01:46:13;18.42;;;4.57;;
68250;SDS011;55066;51.560;4.642;2023-02-11T01:48:58;24.67;;;4.70;;
68250;SDS011;55066;51.560;4.642;2023-02-11T01:51:30;11.60;;;3.85;;
68250;SDS011;55066;51.560;4.642;2023-02-11T01:54:02;21.33;;;4.72;;
68250;SDS011;55066;51.560;4.642;2023-02-11T01:56:50;15.73;;;4.77;;
68250;SDS011;55066;51.560;4.642;2023-02-11T01:59:40;15.82;;;4.95;;
68250;SDS011;55066;51.560;4.642;2023-02-11T02:02:12;14.85;;;4.82;;
68250;SDS011;55066;51.560;4.642;2023-02-11T02:04:45;14.32;;;4.53;;
68250;SDS011;55066;51.560;4.642;2023-02-11T02:07:19;21.45;;;5.20;;
68250;SDS011;55066;51.560;4.642;2023-02-11T02:09:57;17.60;;;5.77;;
68250;SDS011;55066;51.560;4.642;2023-02-11T02:12:27;17.50;;;5.68;;
68250;SDS011;55066;51.560;4.642;2023-02-11T02:15:09;14.82;;;5.38;;
68250;SDS011;55066;51.560;4.642;2023-02-11T02:20:46;16.85;;;5.95;;
68250;SDS011;55066;51.560;4.642;2023-02-11T02:31:53;19.90;;;5.43;;
68250;SDS011;55066;51.560;4.642;2023-02-11T02:37:35;17.50;;;6.05;;
68250;SDS011;55066;51.560;4.642;2023-02-11T02:40:08;18.25;;;6.15;;
68250;SDS011;55066;51.560;4.642;2023-02-11T02:42:44;14.52;;;5.57;;
68250;SDS011;55066;51.560;4.642;2023-02-11T02:45:12;19.50;;;6.43;;
68250;SDS011;55066;51.560;4.642;2023-02-11T02:47:39;19.80;;;6.18;;
68250;SDS011;55066;51.560;4.642;2023-02-11T02:50:04;27.37;;;7.03;;
68250;SDS011;55066;51.560;4.642;2023-02-11T02:55:29;16.52;;;6.07;;
68250;SDS011;55066;51.560;4.642;2023-02-11T02:58:10;21.73;;;6.63;;
68250;SDS011;55066;51.560;4.642;2023-02-11T03:00:58;19.60;;;6.00;;
68250;SDS011;55066;51.560;4.642;2023-02-11T03:03:42;21.43;;;6.87;;
68250;SDS011;55066;51.560;4.642;2023-02-11T03:06:47;17.15;;;6.20;;
68250;SDS011;55066;51.560;4.642;2023-02-11T03:12:22;20.42;;;6.00;;
68250;SDS011;55066;51.560;4.642;2023-02-11T03:14:52;21.65;;;6.95;;
68250;SDS011;55066;51.560;4.642;2023-02-11T03:17:18;18.30;;;6.23;;
68250;SDS011;55066;51.560;4.642;2023-02-11T03:19:47;23.77;;;6.45;;
68250;SDS011;55066;51.560;4.642;2023-02-11T03:22:19;22.35;;;6.72;;
68250;SDS011;55066;51.560;4.642;2023-02-11T03:24:50;17.83;;;6.03;;
68250;SDS011;55066;51.560;4.642;2023-02-11T03:27:20;19.83;;;6.28;;
68250;SDS011;55066;51.560;4.642;2023-02-11T03:32:38;20.33;;;6.00;;
68250;SDS011;55066;51.560;4.642;2023-02-11T03:35:22;17.70;;;5.55;;
68250;SDS011;55066;51.560;4.642;2023-02-11T03:37:59;19.83;;;6.03;;
68250;SDS011;55066;51.560;4.642;2023-02-11T03:40:36;18.13;;;5.03;;
68250;SDS011;55066;51.560;4.642;2023-02-11T03:43:07;19.25;;;5.97;;
68250;SDS011;55066;51.560;4.642;2023-02-11T03:45:37;21.13;;;6.63;;
68250;SDS011;55066;51.560;4.642;2023-02-11T03:48:14;19.05;;;6.45;;
68250;SDS011;55066;51.560;4.642;2023-02-11T03:50:46;20.55;;;6.93;;
68250;SDS011;55066;51.560;4.642;2023-02-11T03:53:14;21.40;;;6.20;;
68250;SDS011;55066;51.560;4.642;2023-02-11T03:55:42;27.80;;;7.37;;
68250;SDS011;55066;51.560;4.642;2023-02-11T03:58:09;25.50;;;7.85;;
68250;SDS011;55066;51.560;4.642;2023-02-11T04:00:37;25.80;;;7.90;;
68250;SDS011;55066;51.560;4.642;2023-02-11T04:03:05;23.80;;;7.90;;
68250;SDS011;55066;51.560;4.642;2023-02-11T04:05:33;26.15;;;8.13;;
68250;SDS011;55066;51.560;4.642;2023-02-11T04:07:59;22.52;;;7.50;;
68250;SDS011;55066;51.560;4.642;2023-02-11T04:10:25;28.37;;;8.10;;
68250;SDS011;55066;51.560;4.642;2023-02-11T04:12:51;28.90;;;8.45;;
68250;SDS011;55066;51.560;4.642;2023-02-11T04:15:16;23.75;;;8.65;;
68250;SDS011;55066;51.560;4.642;2023-02-11T04:17:42;24.80;;;9.05;;
68250;SDS011;55066;51.560;4.642;2023-02-11T04:20:08;31.15;;;8.40;;
68250;SDS011;55066;51.560;4.642;2023-02-11T04:22:34;33.50;;;8.30;;
68250;SDS011;55066;51.560;4.642;2023-02-11T04:25:00;21.40;;;8.40;;
68250;SDS011;55066;51.560;4.642;2023-02-11T04:27:26;24.88;;;8.95;;
68250;SDS011;55066;51.560;4.642;2023-02-11T04:29:51;27.83;;;8.60;;
68250;SDS011;55066;51.560;4.642;2023-02-11T04:32:19;27.00;;;8.57;;
68250;SDS011;55066;51.560;4.642;2023-02-11T04:34:44;23.50;;;8.87;;
68250;SDS011;55066;51.560;4.642;2023-02-11T04:37:10;29.83;;;8.60;;
68250;SDS011;55066;51.560;4.642;2023-02-11T04:39:37;27.27;;;8.70;;
68250;SDS011;55066;51.560;4.642;2023-02-11T04:42:02;27.85;;;9.25;;
68250;SDS011;55066;51.560;4.642;2023-02-11T04:44:29;26.75;;;8.75;;
68250;SDS011;55066;51.560;4.642;2023-02-11T04:46:54;31.93;;;9.37;;
68250;SDS011;55066;51.560;4.642;2023-02-11T04:49:20;28.67;;;9.40;;
68250;SDS011;55066;51.560;4.642;2023-02-11T04:51:47;26.40;;;8.90;;
68250;SDS011;55066;51.560;4.642;2023-02-11T04:54:13;32.15;;;10.30;;
68250;SDS011;55066;51.560;4.642;2023-02-11T04:56:39;29.55;;;10.10;;
68250;SDS011;55066;51.560;4.642;2023-02-11T04:59:04;32.67;;;9.73;;
68250;SDS011;55066;51.560;4.642;2023-02-11T05:01:31;32.22;;;10.13;;
68250;SDS011;55066;51.560;4.642;2023-02-11T05:03:58;43.87;;;10.17;;
68250;SDS011;55066;51.560;4.642;2023-02-11T05:06:25;29.27;;;9.68;;
68250;SDS011;55066;51.560;4.642;2023-02-11T05:08:50;29.83;;;10.47;;
68250;SDS011;55066;51.560;4.642;2023-02-11T05:11:18;32.35;;;9.75;;
68250;SDS011;55066;51.560;4.642;2023-02-11T05:13:45;35.90;;;9.60;;
68250;SDS011;55066;51.560;4.642;2023-02-11T05:16:12;32.50;;;10.33;;
68250;SDS011;55066;51.560;4.642;2023-02-11T05:18:38;32.22;;;10.48;;
68250;SDS011;55066;51.560;4.642;2023-02-11T05:21:06;29.10;;;10.60;;
68250;SDS011;55066;51.560;4.642;2023-02-11T05:23:34;33.28;;;10.13;;
68250;SDS011;55066;51.560;4.642;2023-02-11T05:26:00;32.72;;;9.98;;
68250;SDS011;55066;51.560;4.642;2023-02-11T05:28:27;31.53;;;10.23;;
68250;SDS011;55066;51.560;4.642;2023-02-11T05:30:53;30.13;;;10.05;;
68250;SDS011;55066;51.560;4.642;2023-02-11T05:33:18;35.22;;;9.48;;
68250;SDS011;55066;51.560;4.642;2023-02-11T05:35:44;33.30;;;10.40;;
68250;SDS011;55066;51.560;4.642;2023-02-11T05:38:09;29.17;;;10.60;;
68250;SDS011;55066;51.560;4.642;2023-02-11T05:40:35;34.67;;;10.10;;
68250;SDS011;55066;51.560;4.642;2023-02-11T05:43:02;32.30;;;10.33;;
68250;SDS011;55066;51.560;4.642;2023-02-11T05:45:28;32.90;;;10.00;;
68250;SDS011;55066;51.560;4.642;2023-02-11T05:47:54;33.38;;;10.10;;
68250;SDS011;55066;51.560;4.642;2023-02-11T05:50:21;40.07;;;10.33;;
68250;SDS011;55066;51.560;4.642;2023-02-11T05:52:51;34.67;;;10.48;;
68250;SDS011;55066;51.560;4.642;2023-02-11T05:55:16;29.92;;;10.15;;
68250;SDS011;55066;51.560;4.642;2023-02-11T05:57:42;39.13;;;11.10;;
68250;SDS011;55066;51.560;4.642;2023-02-11T06:00:09;35.92;;;11.15;;
68250;SDS011;55066;51.560;4.642;2023-02-11T06:02:38;34.90;;;11.27;;
68250;SDS011;55066;51.560;4.642;2023-02-11T06:05:04;41.00;;;12.68;;
68250;SDS011;55066;51.560;4.642;2023-02-11T06:07:30;32.17;;;11.25;;
68250;SDS011;55066;51.560;4.642;2023-02-11T06:09:55;43.97;;;12.40;;
68250;SDS011;55066;51.560;4.642;2023-02-11T06:12:23;39.90;;;12.15;;
68250;SDS011;55066;51.560;4.642;2023-02-11T06:14:48;39.33;;;13.33;;
68250;SDS011;55066;51.560;4.642;2023-02-11T06:17:14;51.87;;;13.60;;
68250;SDS011;55066;51.560;4.642;2023-02-11T06:19:39;44.28;;;12.75;;
68250;SDS011;55066;51.560;4.642;2023-02-11T06:22:05;43.70;;;12.37;;
68250;SDS011;55066;51.560;4.642;2023-02-11T06:24:30;40.50;;;13.30;;
68250;SDS011;55066;51.560;4.642;2023-02-11T06:26:57;42.60;;;12.70;;
68250;SDS011;55066;51.560;4.642;2023-02-11T06:29:23;44.90;;;12.85;;
68250;SDS011;55066;51.560;4.642;2023-02-11T06:31:48;37.20;;;13.10;;
68250;SDS011;55066;51.560;4.642;2023-02-11T06:34:14;41.63;;;12.83;;
68250;SDS011;55066;51.560;4.642;2023-02-11T06:36:41;43.83;;;13.52;;
68250;SDS011;55066;51.560;4.642;2023-02-11T06:39:08;42.92;;;14.32;;
68250;SDS011;55066;51.560;4.642;2023-02-11T06:41:34;53.85;;;14.38;;
68250;SDS011;55066;51.560;4.642;2023-02-11T06:44:00;43.13;;;13.63;;
68250;SDS011;55066;51.560;4.642;2023-02-11T06:46:25;47.88;;;14.77;;
68250;SDS011;55066;51.560;4.642;2023-02-11T06:48:52;43.00;;;14.75;;
68250;SDS011;55066;51.560;4.642;2023-02-11T06:51:17;44.87;;;14.20;;
68250;SDS011;55066;51.560;4.642;2023-02-11T06:53:43;48.50;;;14.30;;
68250;SDS011;55066;51.560;4.642;2023-02-11T06:56:13;48.95;;;14.95;;
68250;SDS011;55066;51.560;4.642;2023-02-11T06:58:40;51.45;;;15.57;;
68250;SDS011;55066;51.560;4.642;2023-02-11T07:01:07;45.07;;;14.33;;
68250;SDS011;55066;51.560;4.642;2023-02-11T07:03:35;49.13;;;14.70;;
68250;SDS011;55066;51.560;4.642;2023-02-11T07:06:03;49.13;;;14.18;;
68250;SDS011;55066;51.560;4.642;2023-02-11T07:08:32;48.80;;;14.88;;
68250;SDS011;55066;51.560;4.642;2023-02-11T07:11:07;49.03;;;15.43;;
68250;SDS011;55066;51.560;4.642;2023-02-11T07:13:34;51.47;;;15.32;;
68250;SDS011;55066;51.560;4.642;2023-02-11T07:16:02;55.60;;;16.42;;
68250;SDS011;55066;51.560;4.642;2023-02-11T07:18:31;55.07;;;16.87;;
68250;SDS011;55066;51.560;4.642;2023-02-11T07:20:58;49.35;;;15.77;;
68250;SDS011;55066;51.560;4.642;2023-02-11T07:23:24;51.92;;;16.85;;
68250;SDS011;55066;51.560;4.642;2023-02-11T07:25:50;61.50;;;16.43;;
68250;SDS011;55066;51.560;4.642;2023-02-11T07:28:15;46.17;;;14.00;;
68250;SDS011;55066;51.560;4.642;2023-02-11T07:30:41;54.90;;;15.70;;
68250;SDS011;55066;51.560;4.642;2023-02-11T07:33:06;53.73;;;15.77;;
68250;SDS011;55066;51.560;4.642;2023-02-11T07:35:32;48.08;;;15.48;;
68250;SDS011;55066;51.560;4.642;2023-02-11T07:37:57;59.53;;;16.97;;
68250;SDS011;55066;51.560;4.642;2023-02-11T07:40:22;60.57;;;18.17;;
68250;SDS011;55066;51.560;4.642;2023-02-11T07:42:49;67.78;;;19.23;;
68250;SDS011;55066;51.560;4.642;2023-02-11T07:45:15;62.27;;;17.17;;
68250;SDS011;55066;51.560;4.642;2023-02-11T07:47:41;71.20;;;19.30;;
68250;SDS011;55066;51.560;4.642;2023-02-11T07:50:07;64.13;;;18.50;;
68250;SDS011;55066;51.560;4.642;2023-02-11T07:52:34;67.88;;;18.95;;
68250;SDS011;55066;51.560;4.642;2023-02-11T07:55:00;73.40;;;20.13;;
68250;SDS011;55066;51.560;4.642;2023-02-11T07:57:26;73.90;;;20.85;;
68250;SDS011;55066;51.560;4.642;2023-02-11T07:59:51;65.40;;;19.67;;
68250;SDS011;55066;51.560;4.642;2023-02-11T08:02:17;79.15;;;21.70;;
68250;SDS011;55066;51.560;4.642;2023-02-11T08:04:46;75.78;;;20.48;;
68250;SDS011;55066;51.560;4.642;2023-02-11T08:07:17;73.03;;;19.57;;
68250;SDS011;55066;51.560;4.642;2023-02-11T08:09:43;74.10;;;19.70;;
68250;SDS011;55066;51.560;4.642;2023-02-11T08:12:08;70.60;;;20.25;;
68250;SDS011;55066;51.560;4.642;2023-02-11T08:14:34;83.80;;;21.23;;
68250;SDS011;55066;51.560;4.642;2023-02-11T08:16:59;72.87;;;20.47;;
68250;SDS011;55066;51.560;4.642;2023-02-11T08:19:29;73.20;;;21.17;;
68250;SDS011;55066;51.560;4.642;2023-02-11T08:21:55;78.15;;;20.55;;
68250;SDS011;55066;51.560;4.642;2023-02-11T08:24:21;74.18;;;20.00;;
68250;SDS011;55066;51.560;4.642;2023-02-11T08:26:47;72.28;;;19.17;;
68250;SDS011;55066;51.560;4.642;2023-02-11T08:29:13;72.55;;;20.98;;
68250;SDS011;55066;51.560;4.642;2023-02-11T08:31:41;75.13;;;20.60;;
68250;SDS011;55066;51.560;4.642;2023-02-11T08:34:09;81.80;;;20.35;;
68250;SDS011;55066;51.560;4.642;2023-02-11T08:36:36;67.28;;;19.13;;
68250;SDS011;55066;51.560;4.642;2023-02-11T08:39:06;70.15;;;19.40;;
68250;SDS011;55066;51.560;4.642;2023-02-11T08:41:37;69.72;;;19.42;;
68250;SDS011;55066;51.560;4.642;2023-02-11T08:44:02;69.43;;;19.63;;
68250;SDS011;55066;51.560;4.642;2023-02-11T08:46:30;61.65;;;17.77;;
68250;SDS011;55066;51.560;4.642;2023-02-11T08:48:55;63.28;;;18.88;;
68250;SDS011;55066;51.560;4.642;2023-02-11T08:51:22;70.67;;;18.83;;
68250;SDS011;55066;51.560;4.642;2023-02-11T08:53:52;63.33;;;18.80;;
68250;SDS011;55066;51.560;4.642;2023-02-11T08:56:19;65.45;;;17.52;;
68250;SDS011;55066;51.560;4.642;2023-02-11T08:58:46;60.77;;;18.00;;
68250;SDS011;55066;51.560;4.642;2023-02-11T09:01:12;58.67;;;18.45;;
68250;SDS011;55066;51.560;4.642;2023-02-11T09:03:41;60.80;;;19.13;;
68250;SDS011;55066;51.560;4.642;2023-02-11T09:06:10;68.15;;;17.83;;
68250;SDS011;55066;51.560;4.642;2023-02-11T09:08:39;59.53;;;18.10;;
68250;SDS011;55066;51.560;4.642;2023-02-11T09:11:07;66.10;;;18.43;;
68250;SDS011;55066;51.560;4.642;2023-02-11T09:13:35;63.95;;;19.27;;
68250;SDS011;55066;51.560;4.642;2023-02-11T09:16:02;62.38;;;18.05;;
68250;SDS011;55066;51.560;4.642;2023-02-11T09:18:29;52.78;;;17.90;;
68250;SDS011;55066;51.560;4.642;2023-02-11T09:21:02;58.10;;;16.20;;
68250;SDS011;55066;51.560;4.642;2023-02-11T09:23:30;52.42;;;18.42;;
68250;SDS011;55066;51.560;4.642;2023-02-11T09:26:11;62.55;;;18.10;;
68250;SDS011;55066;51.560;4.642;2023-02-11T09:28:42;63.97;;;17.83;;
68250;SDS011;55066;51.560;4.642;2023-02-11T09:31:11;60.70;;;18.55;;
68250;SDS011;55066;51.560;4.642;2023-02-11T09:33:40;51.60;;;16.73;;
68250;SDS011;55066;51.560;4.642;2023-02-11T09:36:11;55.08;;;17.17;;
68250;SDS011;55066;51.560;4.642;2023-02-11T09:38:42;57.05;;;17.23;;
68250;SDS011;55066;51.560;4.642;2023-02-11T09:41:16;53.50;;;17.25;;
68250;SDS011;55066;51.560;4.642;2023-02-11T09:43:56;45.55;;;16.05;;
68250;SDS011;55066;51.560;4.642;2023-02-11T09:46:25;54.33;;;17.33;;
68250;SDS011;55066;51.560;4.642;2023-02-11T09:48:59;51.15;;;15.70;;
68250;SDS011;55066;51.560;4.642;2023-02-11T09:54:00;52.63;;;16.90;;
68250;SDS011;55066;51.560;4.642;2023-02-11T09:56:32;51.80;;;15.95;;
68250;SDS011;55066;51.560;4.642;2023-02-11T09:58:57;51.63;;;17.13;;
68250;SDS011;55066;51.560;4.642;2023-02-11T10:07:20;45.72;;;15.07;;
68250;SDS011;55066;51.560;4.642;2023-02-11T10:09:56;47.30;;;15.70;;
68250;SDS011;55066;51.560;4.642;2023-02-11T10:15:29;53.92;;;15.95;;
68250;SDS011;55066;51.560;4.642;2023-02-11T10:18:29;43.17;;;14.40;;
68250;SDS011;55066;51.560;4.642;2023-02-11T10:21:18;48.72;;;15.20;;
68250;SDS011;55066;51.560;4.642;2023-02-11T10:23:56;46.10;;;14.65;;
68250;SDS011;55066;51.560;4.642;2023-02-11T10:26:28;43.45;;;14.95;;
68250;SDS011;55066;51.560;4.642;2023-02-11T10:28:58;49.50;;;15.65;;
68250;SDS011;55066;51.560;4.642;2023-02-11T10:31:34;41.47;;;14.93;;
68250;SDS011;55066;51.560;4.642;2023-02-11T10:34:13;47.85;;;15.45;;
68250;SDS011;55066;51.560;4.642;2023-02-11T10:36:41;44.35;;;16.20;;
68250;SDS011;55066;51.560;4.642;2023-02-11T10:39:09;43.38;;;15.57;;
68250;SDS011;55066;51.560;4.642;2023-02-11T10:41:38;43.10;;;13.82;;
68250;SDS011;55066;51.560;4.642;2023-02-11T10:44:30;47.07;;;14.60;;
68250;SDS011;55066;51.560;4.642;2023-02-11T10:46:55;39.88;;;13.63;;
68250;SDS011;55066;51.560;4.642;2023-02-11T10:50:00;42.22;;;15.15;;
68250;SDS011;55066;51.560;4.642;2023-02-11T10:52:23;38.58;;;14.13;;
68250;SDS011;55066;51.560;4.642;2023-02-11T11:00:06;46.60;;;14.45;;
68250;SDS011;55066;51.560;4.642;2023-02-11T11:02:44;42.53;;;14.50;;
68250;SDS011;55066;51.560;4.642;2023-02-11T11:05:17;37.67;;;13.30;;
68250;SDS011;55066;51.560;4.642;2023-02-11T11:07:54;39.70;;;14.50;;
68250;SDS011;55066;51.560;4.642;2023-02-11T11:10:38;41.53;;;13.50;;
68250;SDS011;55066;51.560;4.642;2023-02-11T11:16:27;41.35;;;14.23;;
68250;SDS011;55066;51.560;4.642;2023-02-11T11:18:48;39.30;;;13.63;;
68250;SDS011;55066;51.560;4.642;2023-02-11T11:21:21;41.70;;;14.35;;
68250;SDS011;55066;51.560;4.642;2023-02-11T11:24:01;37.87;;;14.30;;
68250;SDS011;55066;51.560;4.642;2023-02-11T11:26:41;45.47;;;14.90;;
68250;SDS011;55066;51.560;4.642;2023-02-11T11:29:12;37.90;;;13.50;;
68250;SDS011;55066;51.560;4.642;2023-02-11T11:32:29;39.05;;;14.07;;
68250;SDS011;55066;51.560;4.642;2023-02-11T11:35:00;40.03;;;14.10;;
68250;SDS011;55066;51.560;4.642;2023-02-11T11:37:29;40.30;;;13.90;;
68250;SDS011;55066;51.560;4.642;2023-02-11T11:42:41;37.80;;;14.40;;
68250;SDS011;55066;51.560;4.642;2023-02-11T11:50:44;41.40;;;14.00;;
68250;SDS011;55066;51.560;4.642;2023-02-11T11:55:58;38.58;;;14.20;;
68250;SDS011;55066;51.560;4.642;2023-02-11T11:58:28;42.00;;;14.65;;
68250;SDS011;55066;51.560;4.642;2023-02-11T12:14:54;40.95;;;13.52;;
68250;SDS011;55066;51.560;4.642;2023-02-11T12:26:10;35.17;;;13.20;;
68250;SDS011;55066;51.560;4.642;2023-02-11T12:34:48;38.15;;;14.30;;
68250;SDS011;55066;51.560;4.642;2023-02-11T12:37:25;36.45;;;13.75;;
68250;SDS011;55066;51.560;4.642;2023-02-11T12:43:12;37.40;;;13.30;;
68250;SDS011;55066;51.560;4.642;2023-02-11T12:56:59;34.47;;;12.32;;
68250;SDS011;55066;51.560;4.642;2023-02-11T13:02:43;34.95;;;12.18;;
68250;SDS011;55066;51.560;4.642;2023-02-11T13:05:26;36.67;;;12.73;;
68250;SDS011;55066;51.560;4.642;2023-02-11T13:08:15;37.15;;;12.65;;
68250;SDS011;55066;51.560;4.642;2023-02-11T13:10:42;33.22;;;11.18;;
68250;SDS011;55066;51.560;4.642;2023-02-11T13:21:18;29.73;;;10.30;;
68250;SDS011;55066;51.560;4.642;2023-02-11T13:27:07;28.53;;;10.90;;
68250;SDS011;55066;51.560;4.642;2023-02-11T13:38:21;34.45;;;10.20;;
68250;SDS011;55066;51.560;4.642;2023-02-11T13:43:25;30.50;;;10.65;;
68250;SDS011;55066;51.560;4.642;2023-02-11T13:46:13;32.90;;;10.13;;
68250;SDS011;55066;51.560;4.642;2023-02-11T13:48:45;27.27;;;9.57;;
68250;SDS011;55066;51.560;4.642;2023-02-11T13:51:14;28.38;;;10.02;;
68250;SDS011;55066;51.560;4.642;2023-02-11T13:53:44;26.30;;;10.17;;
68250;SDS011;55066;51.560;4.642;2023-02-11T13:56:27;27.67;;;9.05;;
68250;SDS011;55066;51.560;4.642;2023-02-11T13:59:06;29.30;;;9.55;;
68250;SDS011;55066;51.560;4.642;2023-02-11T14:10:56;25.65;;;9.27;;
68250;SDS011;55066;51.560;4.642;2023-02-11T14:13:34;29.30;;;9.93;;
68250;SDS011;55066;51.560;4.642;2023-02-11T14:16:10;28.55;;;9.27;;
68250;SDS011;55066;51.560;4.642;2023-02-11T14:21:13;26.67;;;8.97;;
68250;SDS011;55066;51.560;4.642;2023-02-11T14:23:49;24.70;;;9.20;;
68250;SDS011;55066;51.560;4.642;2023-02-11T14:28:53;28.45;;;9.10;;
68250;SDS011;55066;51.560;4.642;2023-02-11T14:31:58;23.00;;;9.65;;
68250;SDS011;55066;51.560;4.642;2023-02-11T14:42:53;27.88;;;10.10;;
68250;SDS011;55066;51.560;4.642;2023-02-11T14:45:22;23.48;;;8.77;;
68250;SDS011;55066;51.560;4.642;2023-02-11T14:48:05;24.17;;;9.23;;
68250;SDS011;55066;51.560;4.642;2023-02-11T14:50:42;24.45;;;9.00;;
68250;SDS011;55066;51.560;4.642;2023-02-11T14:53:14;22.48;;;8.23;;
68250;SDS011;55066;51.560;4.642;2023-02-11T14:55:52;22.58;;;8.50;;
68250;SDS011;55066;51.560;4.642;2023-02-11T14:58:20;21.40;;;7.82;;
68250;SDS011;55066;51.560;4.642;2023-02-11T15:01:33;23.73;;;8.60;;
68250;SDS011;55066;51.560;4.642;2023-02-11T15:04:00;20.00;;;8.20;;
68250;SDS011;55066;51.560;4.642;2023-02-11T15:06:32;20.90;;;8.00;;
68250;SDS011;55066;51.560;4.642;2023-02-11T15:09:12;21.65;;;7.72;;
68250;SDS011;55066;51.560;4.642;2023-02-11T15:11:44;21.83;;;7.85;;
68250;SDS011;55066;51.560;4.642;2023-02-11T15:16:49;20.90;;;7.90;;
68250;SDS011;55066;51.560;4.642;2023-02-11T15:19:19;25.05;;;8.23;;
68250;SDS011;55066;51.560;4.642;2023-02-11T15:21:52;20.27;;;6.70;;
68250;SDS011;55066;51.560;4.642;2023-02-11T15:24:28;20.77;;;7.15;;
68250;SDS011;55066;51.560;4.642;2023-02-11T15:26:57;17.60;;;6.53;;
68250;SDS011;55066;51.560;4.642;2023-02-11T15:29:24;15.35;;;7.05;;
68250;SDS011;55066;51.560;4.642;2023-02-11T15:32:11;18.42;;;6.78;;
68250;SDS011;55066;51.560;4.642;2023-02-11T15:34:42;22.15;;;7.38;;
68250;SDS011;55066;51.560;4.642;2023-02-11T15:37:16;20.85;;;6.75;;
68250;SDS011;55066;51.560;4.642;2023-02-11T15:39:49;19.20;;;7.13;;
68250;SDS011;55066;51.560;4.642;2023-02-11T15:42:27;19.42;;;7.07;;
68250;SDS011;55066;51.560;4.642;2023-02-11T15:45:19;20.92;;;6.63;;
68250;SDS011;55066;51.560;4.642;2023-02-11T15:48:15;18.10;;;7.18;;
68250;SDS011;55066;51.560;4.642;2023-02-11T15:50:54;22.80;;;7.50;;
68250;SDS011;55066;51.560;4.642;2023-02-11T15:53:39;16.60;;;6.60;;
68250;SDS011;55066;51.560;4.642;2023-02-11T15:56:11;18.63;;;7.28;;
68250;SDS011;55066;51.560;4.642;2023-02-11T15:58:43;20.77;;;7.15;;
68250;SDS011;55066;51.560;4.642;2023-02-11T16:01:11;19.95;;;7.20;;
68250;SDS011;55066;51.560;4.642;2023-02-11T16:03:37;19.63;;;6.72;;
68250;SDS011;55066;51.560;4.642;2023-02-11T16:08:40;18.75;;;6.63;;
68250;SDS011;55066;51.560;4.642;2023-02-11T16:13:59;22.02;;;7.25;;
68250;SDS011;55066;51.560;4.642;2023-02-11T16:16:32;21.20;;;7.68;;
68250;SDS011;55066;51.560;4.642;2023-02-11T16:18:59;23.07;;;7.77;;
68250;SDS011;55066;51.560;4.642;2023-02-11T16:21:28;18.27;;;7.50;;
68250;SDS011;55066;51.560;4.642;2023-02-11T16:23:59;23.90;;;8.20;;
68250;SDS011;55066;51.560;4.642;2023-02-11T16:29:12;27.88;;;9.05;;
68250;SDS011;55066;51.560;4.642;2023-02-11T16:31:41;24.77;;;9.30;;
68250;SDS011;55066;51.560;4.642;2023-02-11T16:36:41;24.02;;;8.43;;
68250;SDS011;55066;51.560;4.642;2023-02-11T16:39:07;22.08;;;7.93;;
68250;SDS011;55066;51.560;4.642;2023-02-11T16:41:33;20.23;;;6.82;;
68250;SDS011;55066;51.560;4.642;2023-02-11T16:44:01;18.73;;;6.97;;
68250;SDS011;55066;51.560;4.642;2023-02-11T16:46:27;21.33;;;7.60;;
68250;SDS011;55066;51.560;4.642;2023-02-11T16:48:53;21.50;;;7.35;;
68250;SDS011;55066;51.560;4.642;2023-02-11T16:51:22;18.60;;;7.40;;
68250;SDS011;55066;51.560;4.642;2023-02-11T16:53:47;19.55;;;7.53;;
68250;SDS011;55066;51.560;4.642;2023-02-11T16:56:14;20.67;;;7.60;;
68250;SDS011;55066;51.560;4.642;2023-02-11T16:58:41;20.23;;;7.65;;
68250;SDS011;55066;51.560;4.642;2023-02-11T17:01:07;21.02;;;7.90;;
68250;SDS011;55066;51.560;4.642;2023-02-11T17:03:33;26.13;;;8.60;;
68250;SDS011;55066;51.560;4.642;2023-02-11T17:06:07;23.67;;;8.83;;
68250;SDS011;55066;51.560;4.642;2023-02-11T17:08:34;20.42;;;7.55;;
68250;SDS011;55066;51.560;4.642;2023-02-11T17:11:01;22.45;;;8.32;;
68250;SDS011;55066;51.560;4.642;2023-02-11T17:13:27;20.92;;;8.45;;
68250;SDS011;55066;51.560;4.642;2023-02-11T17:15:53;22.95;;;8.43;;
68250;SDS011;55066;51.560;4.642;2023-02-11T17:18:19;23.80;;;8.07;;
68250;SDS011;55066;51.560;4.642;2023-02-11T17:20:45;18.35;;;6.85;;
68250;SDS011;55066;51.560;4.642;2023-02-11T17:23:12;23.67;;;6.95;;
68250;SDS011;55066;51.560;4.642;2023-02-11T17:25:37;19.23;;;6.87;;